Betsey, Kentucky
Current Conditions -  °F | °C
As of 1:56 PM on Friday 21 Nov 2014 (Local Time) from KEKQ Reporting Station
Clear Clear  
Wind Chill: 42°   Ceiling: Unl
Heat Index: 46°   Visibility: 10mi
Dew Point: 15°   Wind: 8mph
Humidity: 29%   Direction: 70°ENE
Pressure: 30.46"   Gusts: NA
Location:  36.8129°N, 84.8215°W
Report Text: KEKQ 211856Z AUTO 07007KT 10SM CLR 08/M09 A3046 RMK AO2 T00771094 SLP324
Loading
Personal Weather Stations






























Interactive Weather Map New forecast layout! Learn more

10-Day Weather Forecast

Advertisements
Track Severe Weather on mobile